sensor_id;sensor_type;location;lat;lon;timestamp;P1;durP1;ratioP1;P2;durP2;ratioP2
18875;SDS011;9570;50.854;13.778;2023-06-24T00:01:20;6.57;;;5.97;;
18875;SDS011;9570;50.854;13.778;2023-06-24T00:03:45;8.77;;;5.73;;
18875;SDS011;9570;50.854;13.778;2023-06-24T00:06:11;8.70;;;5.80;;
18875;SDS011;9570;50.854;13.778;2023-06-24T00:08:43;7.67;;;5.87;;
18875;SDS011;9570;50.854;13.778;2023-06-24T00:11:10;7.57;;;6.00;;
18875;SDS011;9570;50.854;13.778;2023-06-24T00:13:35;11.23;;;9.23;;
18875;SDS011;9570;50.854;13.778;2023-06-24T00:16:02;9.40;;;7.97;;
18875;SDS011;9570;50.854;13.778;2023-06-24T00:18:27;9.70;;;8.00;;
18875;SDS011;9570;50.854;13.778;2023-06-24T00:20:54;10.67;;;8.10;;
18875;SDS011;9570;50.854;13.778;2023-06-24T00:23:22;11.03;;;8.70;;
18875;SDS011;9570;50.854;13.778;2023-06-24T00:25:51;11.60;;;9.03;;
18875;SDS011;9570;50.854;13.778;2023-06-24T00:28:17;10.90;;;8.93;;
18875;SDS011;9570;50.854;13.778;2023-06-24T00:30:42;11.67;;;9.97;;
18875;SDS011;9570;50.854;13.778;2023-06-24T00:33:08;12.20;;;9.93;;
18875;SDS011;9570;50.854;13.778;2023-06-24T00:35:36;12.27;;;9.47;;
18875;SDS011;9570;50.854;13.778;2023-06-24T00:38:02;12.37;;;9.83;;
18875;SDS011;9570;50.854;13.778;2023-06-24T00:40:28;15.80;;;10.30;;
18875;SDS011;9570;50.854;13.778;2023-06-24T00:42:54;14.23;;;10.90;;
18875;SDS011;9570;50.854;13.778;2023-06-24T00:45:20;14.33;;;9.90;;
18875;SDS011;9570;50.854;13.778;2023-06-24T00:47:46;13.63;;;10.30;;
18875;SDS011;9570;50.854;13.778;2023-06-24T00:50:12;12.07;;;9.90;;
18875;SDS011;9570;50.854;13.778;2023-06-24T00:52:38;10.57;;;8.83;;
18875;SDS011;9570;50.854;13.778;2023-06-24T00:55:07;11.17;;;9.97;;
18875;SDS011;9570;50.854;13.778;2023-06-24T00:57:40;11.50;;;10.30;;
18875;SDS011;9570;50.854;13.778;2023-06-24T01:00:07;11.00;;;9.90;;
18875;SDS011;9570;50.854;13.778;2023-06-24T01:02:36;13.93;;;11.67;;
18875;SDS011;9570;50.854;13.778;2023-06-24T01:05:02;13.30;;;10.43;;
18875;SDS011;9570;50.854;13.778;2023-06-24T01:07:32;16.93;;;10.30;;
18875;SDS011;9570;50.854;13.778;2023-06-24T01:10:00;18.93;;;10.33;;
18875;SDS011;9570;50.854;13.778;2023-06-24T01:12:26;15.40;;;11.03;;
18875;SDS011;9570;50.854;13.778;2023-06-24T01:14:52;13.07;;;10.53;;
18875;SDS011;9570;50.854;13.778;2023-06-24T01:17:19;13.40;;;11.10;;
18875;SDS011;9570;50.854;13.778;2023-06-24T01:20:02;14.87;;;10.87;;
18875;SDS011;9570;50.854;13.778;2023-06-24T01:28:34;17.20;;;13.30;;
18875;SDS011;9570;50.854;13.778;2023-06-24T01:31:51;17.10;;;12.53;;
18875;SDS011;9570;50.854;13.778;2023-06-24T01:34:44;17.87;;;12.40;;
18875;SDS011;9570;50.854;13.778;2023-06-24T01:37:25;18.53;;;14.03;;
18875;SDS011;9570;50.854;13.778;2023-06-24T01:40:04;17.03;;;14.00;;
18875;SDS011;9570;50.854;13.778;2023-06-24T01:42:38;16.70;;;13.13;;
18875;SDS011;9570;50.854;13.778;2023-06-24T01:45:06;15.87;;;12.27;;
18875;SDS011;9570;50.854;13.778;2023-06-24T01:47:34;16.77;;;12.70;;
18875;SDS011;9570;50.854;13.778;2023-06-24T01:50:01;18.63;;;13.20;;
18875;SDS011;9570;50.854;13.778;2023-06-24T01:52:29;16.53;;;12.60;;
18875;SDS011;9570;50.854;13.778;2023-06-24T01:54:55;19.83;;;14.53;;
18875;SDS011;9570;50.854;13.778;2023-06-24T01:57:23;15.47;;;13.73;;
18875;SDS011;9570;50.854;13.778;2023-06-24T01:59:52;18.60;;;14.10;;
18875;SDS011;9570;50.854;13.778;2023-06-24T02:02:19;18.67;;;14.67;;
18875;SDS011;9570;50.854;13.778;2023-06-24T02:04:46;19.77;;;14.77;;
18875;SDS011;9570;50.854;13.778;2023-06-24T02:07:14;19.27;;;15.47;;
18875;SDS011;9570;50.854;13.778;2023-06-24T02:09:41;20.13;;;15.60;;
18875;SDS011;9570;50.854;13.778;2023-06-24T02:12:09;17.90;;;15.33;;
18875;SDS011;9570;50.854;13.778;2023-06-24T02:14:35;20.70;;;15.07;;
18875;SDS011;9570;50.854;13.778;2023-06-24T02:17:04;16.60;;;14.13;;
18875;SDS011;9570;50.854;13.778;2023-06-24T02:19:31;20.37;;;15.53;;
18875;SDS011;9570;50.854;13.778;2023-06-24T02:21:57;20.33;;;15.00;;
18875;SDS011;9570;50.854;13.778;2023-06-24T02:24:24;16.93;;;14.80;;
18875;SDS011;9570;50.854;13.778;2023-06-24T02:26:51;17.60;;;14.50;;
18875;SDS011;9570;50.854;13.778;2023-06-24T02:29:17;21.40;;;14.80;;
18875;SDS011;9570;50.854;13.778;2023-06-24T02:31:44;16.40;;;14.07;;
18875;SDS011;9570;50.854;13.778;2023-06-24T02:34:10;21.03;;;16.67;;
18875;SDS011;9570;50.854;13.778;2023-06-24T02:36:35;19.27;;;16.57;;
18875;SDS011;9570;50.854;13.778;2023-06-24T02:39:01;19.73;;;16.13;;
18875;SDS011;9570;50.854;13.778;2023-06-24T02:41:27;21.73;;;16.57;;
18875;SDS011;9570;50.854;13.778;2023-06-24T02:43:52;25.93;;;16.63;;
18875;SDS011;9570;50.854;13.778;2023-06-24T02:46:18;23.17;;;20.10;;
18875;SDS011;9570;50.854;13.778;2023-06-24T02:48:45;23.33;;;18.77;;
18875;SDS011;9570;50.854;13.778;2023-06-24T02:51:13;27.27;;;20.97;;
18875;SDS011;9570;50.854;13.778;2023-06-24T02:53:38;22.23;;;18.23;;
18875;SDS011;9570;50.854;13.778;2023-06-24T02:56:05;24.23;;;18.87;;
18875;SDS011;9570;50.854;13.778;2023-06-24T02:58:31;26.60;;;22.67;;
18875;SDS011;9570;50.854;13.778;2023-06-24T03:01:00;29.30;;;22.23;;
18875;SDS011;9570;50.854;13.778;2023-06-24T03:03:28;26.10;;;22.73;;
18875;SDS011;9570;50.854;13.778;2023-06-24T03:05:54;29.07;;;23.20;;
18875;SDS011;9570;50.854;13.778;2023-06-24T03:08:21;28.50;;;23.27;;
18875;SDS011;9570;50.854;13.778;2023-06-24T03:10:49;31.53;;;24.23;;
18875;SDS011;9570;50.854;13.778;2023-06-24T03:13:15;32.80;;;23.20;;
18875;SDS011;9570;50.854;13.778;2023-06-24T03:15:40;27.87;;;23.40;;
18875;SDS011;9570;50.854;13.778;2023-06-24T03:18:06;29.43;;;23.77;;
18875;SDS011;9570;50.854;13.778;2023-06-24T03:20:31;31.47;;;25.10;;
18875;SDS011;9570;50.854;13.778;2023-06-24T03:23:03;33.53;;;24.90;;
18875;SDS011;9570;50.854;13.778;2023-06-24T03:25:32;29.83;;;23.33;;
18875;SDS011;9570;50.854;13.778;2023-06-24T03:27:58;28.93;;;23.43;;
18875;SDS011;9570;50.854;13.778;2023-06-24T03:30:25;25.67;;;22.23;;
18875;SDS011;9570;50.854;13.778;2023-06-24T03:32:51;25.30;;;22.23;;
18875;SDS011;9570;50.854;13.778;2023-06-24T03:35:17;24.77;;;20.67;;
18875;SDS011;9570;50.854;13.778;2023-06-24T03:37:42;24.63;;;19.83;;
18875;SDS011;9570;50.854;13.778;2023-06-24T03:40:08;24.47;;;21.37;;
18875;SDS011;9570;50.854;13.778;2023-06-24T03:42:33;30.07;;;21.37;;
18875;SDS011;9570;50.854;13.778;2023-06-24T03:44:59;23.30;;;20.87;;
18875;SDS011;9570;50.854;13.778;2023-06-24T03:47:24;23.10;;;20.10;;
18875;SDS011;9570;50.854;13.778;2023-06-24T03:49:50;23.73;;;18.97;;
18875;SDS011;9570;50.854;13.778;2023-06-24T03:52:16;24.40;;;19.50;;
18875;SDS011;9570;50.854;13.778;2023-06-24T03:54:42;23.63;;;19.53;;
18875;SDS011;9570;50.854;13.778;2023-06-24T03:57:07;22.60;;;18.80;;
18875;SDS011;9570;50.854;13.778;2023-06-24T03:59:34;26.03;;;18.33;;
18875;SDS011;9570;50.854;13.778;2023-06-24T04:01:59;25.97;;;19.47;;
18875;SDS011;9570;50.854;13.778;2023-06-24T04:04:25;21.57;;;19.10;;
18875;SDS011;9570;50.854;13.778;2023-06-24T04:06:51;22.03;;;19.00;;
18875;SDS011;9570;50.854;13.778;2023-06-24T04:09:16;24.47;;;18.73;;
18875;SDS011;9570;50.854;13.778;2023-06-24T04:11:42;22.97;;;19.30;;
18875;SDS011;9570;50.854;13.778;2023-06-24T04:14:07;25.00;;;19.57;;
18875;SDS011;9570;50.854;13.778;2023-06-24T04:16:34;22.10;;;18.73;;
18875;SDS011;9570;50.854;13.778;2023-06-24T04:19:00;24.17;;;20.10;;
18875;SDS011;9570;50.854;13.778;2023-06-24T04:21:26;22.87;;;17.40;;
18875;SDS011;9570;50.854;13.778;2023-06-24T04:23:52;24.30;;;20.27;;
18875;SDS011;9570;50.854;13.778;2023-06-24T04:26:17;25.13;;;19.53;;
18875;SDS011;9570;50.854;13.778;2023-06-24T04:28:43;22.67;;;19.70;;
18875;SDS011;9570;50.854;13.778;2023-06-24T04:31:08;21.20;;;18.90;;
18875;SDS011;9570;50.854;13.778;2023-06-24T04:33:33;22.33;;;19.30;;
18875;SDS011;9570;50.854;13.778;2023-06-24T04:35:59;22.97;;;19.93;;
18875;SDS011;9570;50.854;13.778;2023-06-24T04:38:25;22.17;;;19.43;;
18875;SDS011;9570;50.854;13.778;2023-06-24T04:40:50;21.73;;;18.20;;
18875;SDS011;9570;50.854;13.778;2023-06-24T04:43:16;24.20;;;17.77;;
18875;SDS011;9570;50.854;13.778;2023-06-24T04:45:41;24.90;;;18.33;;
18875;SDS011;9570;50.854;13.778;2023-06-24T04:48:07;22.60;;;19.37;;
18875;SDS011;9570;50.854;13.778;2023-06-24T04:50:32;21.40;;;19.13;;
18875;SDS011;9570;50.854;13.778;2023-06-24T04:52:58;23.20;;;19.13;;
18875;SDS011;9570;50.854;13.778;2023-06-24T04:55:23;26.23;;;18.90;;
18875;SDS011;9570;50.854;13.778;2023-06-24T04:57:49;21.30;;;19.20;;
18875;SDS011;9570;50.854;13.778;2023-06-24T05:00:14;24.80;;;18.83;;
18875;SDS011;9570;50.854;13.778;2023-06-24T05:02:40;23.63;;;18.77;;
18875;SDS011;9570;50.854;13.778;2023-06-24T05:05:05;23.53;;;19.00;;
18875;SDS011;9570;50.854;13.778;2023-06-24T05:07:31;21.33;;;19.03;;
18875;SDS011;9570;50.854;13.778;2023-06-24T05:09:57;20.17;;;17.83;;
18875;SDS011;9570;50.854;13.778;2023-06-24T05:12:22;21.50;;;18.87;;
18875;SDS011;9570;50.854;13.778;2023-06-24T05:14:51;23.50;;;19.77;;
18875;SDS011;9570;50.854;13.778;2023-06-24T05:17:17;21.73;;;19.37;;
18875;SDS011;9570;50.854;13.778;2023-06-24T05:19:43;26.10;;;19.30;;
18875;SDS011;9570;50.854;13.778;2023-06-24T05:22:09;21.90;;;19.43;;
18875;SDS011;9570;50.854;13.778;2023-06-24T05:24:34;24.73;;;18.50;;
18875;SDS011;9570;50.854;13.778;2023-06-24T05:27:03;22.27;;;19.53;;
18875;SDS011;9570;50.854;13.778;2023-06-24T05:29:30;21.70;;;19.50;;
18875;SDS011;9570;50.854;13.778;2023-06-24T05:31:56;24.30;;;19.07;;
18875;SDS011;9570;50.854;13.778;2023-06-24T05:34:22;22.97;;;19.33;;
18875;SDS011;9570;50.854;13.778;2023-06-24T05:36:47;22.70;;;19.33;;
18875;SDS011;9570;50.854;13.778;2023-06-24T05:39:13;22.00;;;18.60;;
18875;SDS011;9570;50.854;13.778;2023-06-24T05:41:38;22.10;;;19.90;;
18875;SDS011;9570;50.854;13.778;2023-06-24T05:44:05;24.13;;;19.13;;
18875;SDS011;9570;50.854;13.778;2023-06-24T05:46:32;23.30;;;19.27;;
18875;SDS011;9570;50.854;13.778;2023-06-24T05:48:58;26.57;;;20.07;;
18875;SDS011;9570;50.854;13.778;2023-06-24T05:51:23;24.60;;;18.63;;
18875;SDS011;9570;50.854;13.778;2023-06-24T05:53:49;22.73;;;17.93;;
18875;SDS011;9570;50.854;13.778;2023-06-24T05:56:15;22.17;;;18.97;;
18875;SDS011;9570;50.854;13.778;2023-06-24T05:58:40;22.93;;;19.63;;
18875;SDS011;9570;50.854;13.778;2023-06-24T06:01:06;24.67;;;18.63;;
18875;SDS011;9570;50.854;13.778;2023-06-24T06:03:32;22.27;;;18.57;;
18875;SDS011;9570;50.854;13.778;2023-06-24T06:05:58;22.53;;;18.97;;
18875;SDS011;9570;50.854;13.778;2023-06-24T06:08:23;23.27;;;19.67;;
18875;SDS011;9570;50.854;13.778;2023-06-24T06:10:49;23.23;;;19.53;;
18875;SDS011;9570;50.854;13.778;2023-06-24T06:13:14;23.17;;;19.33;;
18875;SDS011;9570;50.854;13.778;2023-06-24T06:15:39;23.90;;;18.87;;
18875;SDS011;9570;50.854;13.778;2023-06-24T06:18:05;22.47;;;18.33;;
18875;SDS011;9570;50.854;13.778;2023-06-24T06:20:30;22.00;;;18.33;;
18875;SDS011;9570;50.854;13.778;2023-06-24T06:22:56;21.40;;;18.33;;
18875;SDS011;9570;50.854;13.778;2023-06-24T06:25:22;20.17;;;18.07;;
18875;SDS011;9570;50.854;13.778;2023-06-24T06:27:48;23.20;;;18.77;;
18875;SDS011;9570;50.854;13.778;2023-06-24T06:30:14;23.63;;;18.20;;
18875;SDS011;9570;50.854;13.778;2023-06-24T06:32:39;25.83;;;18.77;;
18875;SDS011;9570;50.854;13.778;2023-06-24T06:35:05;21.43;;;17.77;;
18875;SDS011;9570;50.854;13.778;2023-06-24T06:37:31;24.17;;;19.17;;
18875;SDS011;9570;50.854;13.778;2023-06-24T06:39:57;23.33;;;17.97;;
18875;SDS011;9570;50.854;13.778;2023-06-24T06:42:22;24.30;;;19.30;;
18875;SDS011;9570;50.854;13.778;2023-06-24T06:44:48;25.80;;;19.33;;
18875;SDS011;9570;50.854;13.778;2023-06-24T06:47:13;25.57;;;18.77;;
18875;SDS011;9570;50.854;13.778;2023-06-24T06:49:39;26.27;;;19.43;;
18875;SDS011;9570;50.854;13.778;2023-06-24T06:52:05;24.57;;;19.20;;
18875;SDS011;9570;50.854;13.778;2023-06-24T06:54:30;24.63;;;19.93;;
18875;SDS011;9570;50.854;13.778;2023-06-24T06:57:00;23.70;;;18.77;;
18875;SDS011;9570;50.854;13.778;2023-06-24T06:59:29;27.20;;;20.27;;
18875;SDS011;9570;50.854;13.778;2023-06-24T07:01:55;25.43;;;18.67;;
18875;SDS011;9570;50.854;13.778;2023-06-24T07:04:20;27.27;;;20.17;;
18875;SDS011;9570;50.854;13.778;2023-06-24T07:06:46;23.93;;;18.20;;
18875;SDS011;9570;50.854;13.778;2023-06-24T07:09:12;22.33;;;18.57;;
18875;SDS011;9570;50.854;13.778;2023-06-24T07:11:37;20.57;;;18.33;;
18875;SDS011;9570;50.854;13.778;2023-06-24T07:14:03;22.13;;;17.73;;
18875;SDS011;9570;50.854;13.778;2023-06-24T07:16:28;21.40;;;15.40;;
18875;SDS011;9570;50.854;13.778;2023-06-24T07:18:53;19.10;;;14.13;;
18875;SDS011;9570;50.854;13.778;2023-06-24T07:21:19;17.53;;;14.77;;
18875;SDS011;9570;50.854;13.778;2023-06-24T07:23:44;15.17;;;13.53;;
18875;SDS011;9570;50.854;13.778;2023-06-24T07:26:10;15.83;;;14.17;;
18875;SDS011;9570;50.854;13.778;2023-06-24T07:28:36;18.87;;;13.10;;
18875;SDS011;9570;50.854;13.778;2023-06-24T07:31:01;19.37;;;13.00;;
18875;SDS011;9570;50.854;13.778;2023-06-24T07:33:27;16.13;;;12.73;;
18875;SDS011;9570;50.854;13.778;2023-06-24T07:35:55;14.27;;;12.80;;
18875;SDS011;9570;50.854;13.778;2023-06-24T07:38:20;18.40;;;12.40;;
18875;SDS011;9570;50.854;13.778;2023-06-24T07:40:46;16.57;;;12.37;;
18875;SDS011;9570;50.854;13.778;2023-06-24T07:43:11;13.50;;;12.07;;
18875;SDS011;9570;50.854;13.778;2023-06-24T07:45:37;13.67;;;10.60;;
18875;SDS011;9570;50.854;13.778;2023-06-24T07:48:02;11.50;;;10.33;;
18875;SDS011;9570;50.854;13.778;2023-06-24T07:50:29;13.93;;;9.63;;
18875;SDS011;9570;50.854;13.778;2023-06-24T07:52:56;14.30;;;10.10;;
18875;SDS011;9570;50.854;13.778;2023-06-24T07:55:21;12.00;;;9.20;;
18875;SDS011;9570;50.854;13.778;2023-06-24T07:57:47;11.47;;;9.80;;
18875;SDS011;9570;50.854;13.778;2023-06-24T08:00:13;10.63;;;8.97;;
18875;SDS011;9570;50.854;13.778;2023-06-24T08:02:40;12.70;;;9.27;;
18875;SDS011;9570;50.854;13.778;2023-06-24T08:05:06;13.90;;;9.50;;
18875;SDS011;9570;50.854;13.778;2023-06-24T08:07:34;13.73;;;9.00;;
18875;SDS011;9570;50.854;13.778;2023-06-24T08:09:59;13.47;;;10.67;;
18875;SDS011;9570;50.854;13.778;2023-06-24T08:12:25;13.77;;;9.70;;
18875;SDS011;9570;50.854;13.778;2023-06-24T08:14:50;13.93;;;9.10;;
18875;SDS011;9570;50.854;13.778;2023-06-24T08:17:16;10.33;;;9.17;;
18875;SDS011;9570;50.854;13.778;2023-06-24T08:19:41;11.60;;;9.37;;
18875;SDS011;9570;50.854;13.778;2023-06-24T08:22:07;9.87;;;8.40;;
18875;SDS011;9570;50.854;13.778;2023-06-24T08:24:32;10.57;;;8.73;;
18875;SDS011;9570;50.854;13.778;2023-06-24T08:26:57;11.40;;;8.53;;
18875;SDS011;9570;50.854;13.778;2023-06-24T08:29:23;11.43;;;7.57;;
18875;SDS011;9570;50.854;13.778;2023-06-24T08:31:48;9.00;;;7.33;;
18875;SDS011;9570;50.854;13.778;2023-06-24T08:34:14;10.60;;;7.53;;
18875;SDS011;9570;50.854;13.778;2023-06-24T08:36:39;9.27;;;6.20;;
18875;SDS011;9570;50.854;13.778;2023-06-24T08:39:05;7.10;;;6.33;;
18875;SDS011;9570;50.854;13.778;2023-06-24T08:41:30;10.07;;;6.50;;
18875;SDS011;9570;50.854;13.778;2023-06-24T08:43:56;6.23;;;5.53;;
18875;SDS011;9570;50.854;13.778;2023-06-24T08:46:23;6.97;;;4.80;;
18875;SDS011;9570;50.854;13.778;2023-06-24T08:48:50;5.37;;;4.87;;
18875;SDS011;9570;50.854;13.778;2023-06-24T08:51:24;6.80;;;4.87;;
18875;SDS011;9570;50.854;13.778;2023-06-24T08:53:54;5.37;;;4.83;;
18875;SDS011;9570;50.854;13.778;2023-06-24T08:56:20;8.63;;;4.32;;
18875;SDS011;9570;50.854;13.778;2023-06-24T08:58:46;8.00;;;4.40;;
18875;SDS011;9570;50.854;13.778;2023-06-24T09:01:11;7.83;;;4.80;;
18875;SDS011;9570;50.854;13.778;2023-06-24T09:03:37;5.17;;;4.30;;
18875;SDS011;9570;50.854;13.778;2023-06-24T09:06:03;7.97;;;4.60;;
18875;SDS011;9570;50.854;13.778;2023-06-24T09:08:28;7.57;;;4.40;;
18875;SDS011;9570;50.854;13.778;2023-06-24T09:10:54;5.50;;;4.30;;
18875;SDS011;9570;50.854;13.778;2023-06-24T09:13:35;4.78;;;4.00;;
18875;SDS011;9570;50.854;13.778;2023-06-24T09:16:08;7.10;;;4.07;;
18875;SDS011;9570;50.854;13.778;2023-06-24T09:18:37;7.63;;;4.28;;
18875;SDS011;9570;50.854;13.778;2023-06-24T09:21:03;6.15;;;3.55;;
18875;SDS011;9570;50.854;13.778;2023-06-24T09:23:28;4.22;;;3.47;;
18875;SDS011;9570;50.854;13.778;2023-06-24T09:25:56;7.53;;;3.83;;
18875;SDS011;9570;50.854;13.778;2023-06-24T09:28:28;5.93;;;3.60;;
18875;SDS011;9570;50.854;13.778;2023-06-24T09:31:09;7.32;;;3.70;;
18875;SDS011;9570;50.854;13.778;2023-06-24T09:33:34;5.60;;;3.95;;
18875;SDS011;9570;50.854;13.778;2023-06-24T09:36:01;4.47;;;3.72;;
18875;SDS011;9570;50.854;13.778;2023-06-24T09:38:34;4.35;;;3.50;;
18875;SDS011;9570;50.854;13.778;2023-06-24T09:41:04;6.10;;;3.70;;
18875;SDS011;9570;50.854;13.778;2023-06-24T09:43:34;4.47;;;3.58;;
18875;SDS011;9570;50.854;13.778;2023-06-24T09:46:06;7.18;;;4.03;;
18875;SDS011;9570;50.854;13.778;2023-06-24T09:48:35;4.32;;;3.75;;
18875;SDS011;9570;50.854;13.778;2023-06-24T09:51:01;4.10;;;3.17;;
18875;SDS011;9570;50.854;13.778;2023-06-24T09:53:30;5.93;;;3.53;;
18875;SDS011;9570;50.854;13.778;2023-06-24T09:55:57;5.10;;;3.83;;
18875;SDS011;9570;50.854;13.778;2023-06-24T09:58:25;4.53;;;3.40;;
18875;SDS011;9570;50.854;13.778;2023-06-24T10:00:51;6.25;;;3.63;;
18875;SDS011;9570;50.854;13.778;2023-06-24T10:03:17;4.82;;;3.88;;
18875;SDS011;9570;50.854;13.778;2023-06-24T10:05:43;5.37;;;3.97;;
18875;SDS011;9570;50.854;13.778;2023-06-24T10:08:09;4.82;;;3.97;;
18875;SDS011;9570;50.854;13.778;2023-06-24T10:10:36;6.97;;;4.03;;
18875;SDS011;9570;50.854;13.778;2023-06-24T10:13:01;5.50;;;3.95;;
18875;SDS011;9570;50.854;13.778;2023-06-24T10:15:27;6.20;;;3.42;;
18875;SDS011;9570;50.854;13.778;2023-06-24T10:17:52;4.45;;;3.40;;
18875;SDS011;9570;50.854;13.778;2023-06-24T10:20:24;3.95;;;3.65;;
18875;SDS011;9570;50.854;13.778;2023-06-24T10:22:51;5.32;;;3.70;;
18875;SDS011;9570;50.854;13.778;2023-06-24T10:25:16;5.30;;;4.13;;
18875;SDS011;9570;50.854;13.778;2023-06-24T10:27:43;5.18;;;3.95;;
18875;SDS011;9570;50.854;13.778;2023-06-24T10:30:16;5.10;;;3.83;;
18875;SDS011;9570;50.854;13.778;2023-06-24T10:32:44;5.00;;;4.30;;
18875;SDS011;9570;50.854;13.778;2023-06-24T10:35:25;5.15;;;3.80;;
18875;SDS011;9570;50.854;13.778;2023-06-24T10:37:59;5.13;;;3.63;;
18875;SDS011;9570;50.854;13.778;2023-06-24T10:40:34;5.18;;;4.38;;
18875;SDS011;9570;50.854;13.778;2023-06-24T10:43:22;5.45;;;4.13;;
18875;SDS011;9570;50.854;13.778;2023-06-24T10:45:49;7.78;;;4.28;;
18875;SDS011;9570;50.854;13.778;2023-06-24T10:48:15;4.88;;;4.30;;
18875;SDS011;9570;50.854;13.778;2023-06-24T10:50:44;5.18;;;4.47;;
18875;SDS011;9570;50.854;13.778;2023-06-24T10:53:10;5.35;;;3.95;;
18875;SDS011;9570;50.854;13.778;2023-06-24T10:55:37;5.75;;;4.30;;
18875;SDS011;9570;50.854;13.778;2023-06-24T10:58:09;5.20;;;3.93;;
18875;SDS011;9570;50.854;13.778;2023-06-24T11:00:37;7.80;;;4.30;;
18875;SDS011;9570;50.854;13.778;2023-06-24T11:03:16;5.17;;;4.23;;
18875;SDS011;9570;50.854;13.778;2023-06-24T11:05:45;5.13;;;4.20;;
18875;SDS011;9570;50.854;13.778;2023-06-24T11:08:11;6.97;;;4.77;;
18875;SDS011;9570;50.854;13.778;2023-06-24T11:10:43;5.07;;;4.57;;
18875;SDS011;9570;50.854;13.778;2023-06-24T11:13:10;6.30;;;4.63;;
18875;SDS011;9570;50.854;13.778;2023-06-24T11:15:35;6.00;;;4.50;;
18875;SDS011;9570;50.854;13.778;2023-06-24T11:18:04;6.40;;;4.77;;
18875;SDS011;9570;50.854;13.778;2023-06-24T11:20:29;5.10;;;4.50;;
18875;SDS011;9570;50.854;13.778;2023-06-24T11:22:55;6.33;;;5.00;;
18875;SDS011;9570;50.854;13.778;2023-06-24T11:25:21;6.53;;;4.67;;
18875;SDS011;9570;50.854;13.778;2023-06-24T11:27:47;6.67;;;4.90;;
18875;SDS011;9570;50.854;13.778;2023-06-24T11:30:15;5.60;;;5.00;;
18875;SDS011;9570;50.854;13.778;2023-06-24T11:32:42;5.83;;;4.43;;
18875;SDS011;9570;50.854;13.778;2023-06-24T11:35:09;5.47;;;4.63;;
18875;SDS011;9570;50.854;13.778;2023-06-24T11:37:35;6.40;;;4.30;;
18875;SDS011;9570;50.854;13.778;2023-06-24T11:40:05;5.00;;;4.50;;
18875;SDS011;9570;50.854;13.778;2023-06-24T11:42:32;7.53;;;4.60;;
18875;SDS011;9570;50.854;13.778;2023-06-24T11:45:05;5.80;;;4.70;;
18875;SDS011;9570;50.854;13.778;2023-06-24T11:47:33;5.20;;;4.70;;
18875;SDS011;9570;50.854;13.778;2023-06-24T11:49:59;7.83;;;4.50;;
18875;SDS011;9570;50.854;13.778;2023-06-24T11:52:43;6.43;;;4.80;;
18875;SDS011;9570;50.854;13.778;2023-06-24T11:55:20;5.20;;;4.67;;
18875;SDS011;9570;50.854;13.778;2023-06-24T11:57:57;6.07;;;5.47;;
18875;SDS011;9570;50.854;13.778;2023-06-24T12:00:30;6.47;;;4.37;;
18875;SDS011;9570;50.854;13.778;2023-06-24T12:02:58;9.27;;;4.97;;
18875;SDS011;9570;50.854;13.778;2023-06-24T12:05:29;5.20;;;4.70;;
18875;SDS011;9570;50.854;13.778;2023-06-24T12:08:05;5.47;;;4.73;;
18875;SDS011;9570;50.854;13.778;2023-06-24T12:10:32;7.53;;;5.20;;
18875;SDS011;9570;50.854;13.778;2023-06-24T12:12:58;5.67;;;5.03;;
18875;SDS011;9570;50.854;13.778;2023-06-24T12:15:25;5.17;;;4.67;;
18875;SDS011;9570;50.854;13.778;2023-06-24T12:17:50;8.47;;;4.90;;
18875;SDS011;9570;50.854;13.778;2023-06-24T12:20:16;8.77;;;5.40;;
18875;SDS011;9570;50.854;13.778;2023-06-24T12:22:43;12.50;;;5.13;;
18875;SDS011;9570;50.854;13.778;2023-06-24T12:25:09;5.70;;;5.07;;
18875;SDS011;9570;50.854;13.778;2023-06-24T12:27:35;5.70;;;4.97;;
18875;SDS011;9570;50.854;13.778;2023-06-24T12:30:01;7.97;;;5.20;;
18875;SDS011;9570;50.854;13.778;2023-06-24T12:32:26;4.97;;;4.47;;
18875;SDS011;9570;50.854;13.778;2023-06-24T12:34:52;6.20;;;4.80;;
18875;SDS011;9570;50.854;13.778;2023-06-24T12:37:18;5.73;;;4.40;;
18875;SDS011;9570;50.854;13.778;2023-06-24T12:39:44;7.37;;;4.83;;
18875;SDS011;9570;50.854;13.778;2023-06-24T12:42:10;6.00;;;4.20;;
18875;SDS011;9570;50.854;13.778;2023-06-24T12:44:35;8.10;;;4.60;;
18875;SDS011;9570;50.854;13.778;2023-06-24T12:47:01;6.17;;;4.80;;
18875;SDS011;9570;50.854;13.778;2023-06-24T12:49:27;5.47;;;4.90;;
18875;SDS011;9570;50.854;13.778;2023-06-24T12:51:53;6.77;;;4.73;;
18875;SDS011;9570;50.854;13.778;2023-06-24T12:54:18;5.13;;;4.50;;
18875;SDS011;9570;50.854;13.778;2023-06-24T12:56:44;6.50;;;4.57;;
18875;SDS011;9570;50.854;13.778;2023-06-24T12:59:09;6.03;;;4.60;;
18875;SDS011;9570;50.854;13.778;2023-06-24T13:01:35;7.33;;;4.57;;
18875;SDS011;9570;50.854;13.778;2023-06-24T13:04:00;4.80;;;4.40;;
18875;SDS011;9570;50.854;13.778;2023-06-24T13:06:26;6.77;;;4.70;;
18875;SDS011;9570;50.854;13.778;2023-06-24T13:08:51;7.10;;;4.33;;
18875;SDS011;9570;50.854;13.778;2023-06-24T13:11:17;6.40;;;4.40;;
18875;SDS011;9570;50.854;13.778;2023-06-24T13:13:42;5.33;;;4.50;;
18875;SDS011;9570;50.854;13.778;2023-06-24T13:16:08;6.60;;;4.30;;
18875;SDS011;9570;50.854;13.778;2023-06-24T13:18:33;4.77;;;4.20;;
18875;SDS011;9570;50.854;13.778;2023-06-24T13:20:58;5.30;;;4.50;;
18875;SDS011;9570;50.854;13.778;2023-06-24T13:23:24;5.33;;;4.30;;
18875;SDS011;9570;50.854;13.778;2023-06-24T13:25:49;7.17;;;4.50;;
18875;SDS011;9570;50.854;13.778;2023-06-24T13:28:15;5.93;;;4.10;;
18875;SDS011;9570;50.854;13.778;2023-06-24T13:30:40;6.00;;;4.93;;
18875;SDS011;9570;50.854;13.778;2023-06-24T13:33:06;4.97;;;4.47;;
18875;SDS011;9570;50.854;13.778;2023-06-24T13:35:31;6.37;;;4.57;;
18875;SDS011;9570;50.854;13.778;2023-06-24T13:37:57;5.63;;;4.53;;
18875;SDS011;9570;50.854;13.778;2023-06-24T13:40:23;5.03;;;4.50;;
18875;SDS011;9570;50.854;13.778;2023-06-24T13:42:49;5.73;;;4.67;;
18875;SDS011;9570;50.854;13.778;2023-06-24T13:45:15;5.97;;;4.43;;
18875;SDS011;9570;50.854;13.778;2023-06-24T13:47:40;6.20;;;4.93;;
18875;SDS011;9570;50.854;13.778;2023-06-24T13:50:06;6.77;;;4.93;;
18875;SDS011;9570;50.854;13.778;2023-06-24T13:52:32;5.17;;;4.50;;
18875;SDS011;9570;50.854;13.778;2023-06-24T13:54:58;5.27;;;4.43;;
18875;SDS011;9570;50.854;13.778;2023-06-24T13:57:23;6.20;;;4.43;;
18875;SDS011;9570;50.854;13.778;2023-06-24T13:59:49;6.03;;;4.47;;
18875;SDS011;9570;50.854;13.778;2023-06-24T14:02:14;6.77;;;4.40;;
18875;SDS011;9570;50.854;13.778;2023-06-24T14:04:40;5.87;;;4.33;;
18875;SDS011;9570;50.854;13.778;2023-06-24T14:07:06;8.20;;;4.40;;
18875;SDS011;9570;50.854;13.778;2023-06-24T14:09:31;5.43;;;4.40;;
18875;SDS011;9570;50.854;13.778;2023-06-24T14:11:58;5.43;;;4.20;;
18875;SDS011;9570;50.854;13.778;2023-06-24T14:14:23;7.60;;;4.57;;
18875;SDS011;9570;50.854;13.778;2023-06-24T14:16:49;4.77;;;4.30;;
18875;SDS011;9570;50.854;13.778;2023-06-24T14:19:15;5.13;;;4.27;;
18875;SDS011;9570;50.854;13.778;2023-06-24T14:21:40;5.53;;;4.10;;
18875;SDS011;9570;50.854;13.778;2023-06-24T14:24:06;6.40;;;4.57;;
18875;SDS011;9570;50.854;13.778;2023-06-24T14:26:33;4.87;;;4.40;;
18875;SDS011;9570;50.854;13.778;2023-06-24T14:28:58;4.00;;;3.60;;
18875;SDS011;9570;50.854;13.778;2023-06-24T14:31:24;5.83;;;3.80;;
18875;SDS011;9570;50.854;13.778;2023-06-24T14:33:49;4.47;;;3.60;;
18875;SDS011;9570;50.854;13.778;2023-06-24T14:36:15;7.40;;;4.00;;
18875;SDS011;9570;50.854;13.778;2023-06-24T14:38:40;4.23;;;3.60;;